sensor_id;sensor_type;location;lat;lon;timestamp;P1;durP1;ratioP1;P2;durP2;ratioP2
61127;SDS011;47013;42.664;23.242;2023-08-21T00:00:11;0.88;;;0.50;;
61127;SDS011;47013;42.664;23.242;2023-08-21T00:02:38;2.72;;;1.20;;
61127;SDS011;47013;42.664;23.242;2023-08-21T00:05:04;1.05;;;0.80;;
61127;SDS011;47013;42.664;23.242;2023-08-21T00:07:29;1.17;;;0.63;;
61127;SDS011;47013;42.664;23.242;2023-08-21T00:09:55;0.50;;;0.50;;
61127;SDS011;47013;42.664;23.242;2023-08-21T00:12:20;1.17;;;0.60;;
61127;SDS011;47013;42.664;23.242;2023-08-21T00:14:45;0.60;;;0.45;;
61127;SDS011;47013;42.664;23.242;2023-08-21T00:17:11;0.52;;;0.52;;
61127;SDS011;47013;42.664;23.242;2023-08-21T00:19:36;0.10;;;0.10;;
61127;SDS011;47013;42.664;23.242;2023-08-21T00:22:01;0.55;;;0.38;;
61127;SDS011;47013;42.664;23.242;2023-08-21T00:24:27;0.43;;;0.43;;
61127;SDS011;47013;42.664;23.242;2023-08-21T00:26:52;0.35;;;0.28;;
61127;SDS011;47013;42.664;23.242;2023-08-21T00:29:18;0.73;;;0.60;;
61127;SDS011;47013;42.664;23.242;2023-08-21T00:31:43;0.50;;;0.50;;
61127;SDS011;47013;42.664;23.242;2023-08-21T00:34:09;0.43;;;0.28;;
61127;SDS011;47013;42.664;23.242;2023-08-21T00:36:34;0.25;;;0.22;;
61127;SDS011;47013;42.664;23.242;2023-08-21T00:38:59;1.98;;;0.65;;
61127;SDS011;47013;42.664;23.242;2023-08-21T00:41:25;0.38;;;0.38;;
61127;SDS011;47013;42.664;23.242;2023-08-21T00:43:50;1.08;;;0.60;;
61127;SDS011;47013;42.664;23.242;2023-08-21T00:46:16;0.10;;;0.10;;
61127;SDS011;47013;42.664;23.242;2023-08-21T00:48:42;0.20;;;0.20;;
61127;SDS011;47013;42.664;23.242;2023-08-21T00:51:09;0.40;;;0.35;;
61127;SDS011;47013;42.664;23.242;2023-08-21T00:53:36;0.57;;;0.40;;
61127;SDS011;47013;42.664;23.242;2023-08-21T00:56:01;0.95;;;0.75;;
61127;SDS011;47013;42.664;23.242;2023-08-21T00:58:27;0.60;;;0.47;;
61127;SDS011;47013;42.664;23.242;2023-08-21T01:00:53;0.20;;;0.20;;
61127;SDS011;47013;42.664;23.242;2023-08-21T01:03:19;0.70;;;0.50;;
61127;SDS011;47013;42.664;23.242;2023-08-21T01:05:44;0.25;;;0.25;;
61127;SDS011;47013;42.664;23.242;2023-08-21T01:10:56;1.77;;;1.17;;
61127;SDS011;47013;42.664;23.242;2023-08-21T01:16:14;0.85;;;0.63;;
61127;SDS011;47013;42.664;23.242;2023-08-21T01:18:41;0.13;;;0.13;;
61127;SDS011;47013;42.664;23.242;2023-08-21T01:21:08;0.38;;;0.38;;
61127;SDS011;47013;42.664;23.242;2023-08-21T01:23:36;0.85;;;0.30;;
61127;SDS011;47013;42.664;23.242;2023-08-21T01:26:03;0.20;;;0.20;;
61127;SDS011;47013;42.664;23.242;2023-08-21T01:28:30;0.50;;;0.47;;
61127;SDS011;47013;42.664;23.242;2023-08-21T01:31:42;0.65;;;0.30;;
61127;SDS011;47013;42.664;23.242;2023-08-21T01:33:54;0.50;;;0.35;;
61127;SDS011;47013;42.664;23.242;2023-08-21T01:36:23;0.77;;;0.50;;
61127;SDS011;47013;42.664;23.242;2023-08-21T01:38:49;0.90;;;0.55;;
61127;SDS011;47013;42.664;23.242;2023-08-21T01:41:15;0.70;;;0.45;;
61127;SDS011;47013;42.664;23.242;2023-08-21T01:43:40;0.30;;;0.30;;
61127;SDS011;47013;42.664;23.242;2023-08-21T01:46:05;0.25;;;0.10;;
61127;SDS011;47013;42.664;23.242;2023-08-21T01:48:31;0.95;;;0.60;;
61127;SDS011;47013;42.664;23.242;2023-08-21T01:50:57;0.47;;;0.47;;
61127;SDS011;47013;42.664;23.242;2023-08-21T01:53:22;0.25;;;0.17;;
61127;SDS011;47013;42.664;23.242;2023-08-21T01:55:47;0.50;;;0.50;;
61127;SDS011;47013;42.664;23.242;2023-08-21T01:58:13;0.60;;;0.60;;
61127;SDS011;47013;42.664;23.242;2023-08-21T02:00:38;0.28;;;0.22;;
61127;SDS011;47013;42.664;23.242;2023-08-21T02:03:03;0.03;;;0.03;;
61127;SDS011;47013;42.664;23.242;2023-08-21T02:05:29;0.40;;;0.25;;
61127;SDS011;47013;42.664;23.242;2023-08-21T02:07:54;0.65;;;0.50;;
61127;SDS011;47013;42.664;23.242;2023-08-21T02:10:20;2.83;;;0.73;;
61127;SDS011;47013;42.664;23.242;2023-08-21T02:12:45;0.80;;;0.35;;
61127;SDS011;47013;42.664;23.242;2023-08-21T02:15:10;0.20;;;0.20;;
61127;SDS011;47013;42.664;23.242;2023-08-21T02:17:36;1.77;;;0.80;;
61127;SDS011;47013;42.664;23.242;2023-08-21T02:20:01;0.08;;;0.08;;
61127;SDS011;47013;42.664;23.242;2023-08-21T02:22:27;0.20;;;0.20;;
61127;SDS011;47013;42.664;23.242;2023-08-21T02:24:53;0.40;;;0.35;;
61127;SDS011;47013;42.664;23.242;2023-08-21T02:27:18;1.02;;;0.40;;
61127;SDS011;47013;42.664;23.242;2023-08-21T02:29:44;0.47;;;0.35;;
61127;SDS011;47013;42.664;23.242;2023-08-21T02:32:09;0.30;;;0.30;;
61127;SDS011;47013;42.664;23.242;2023-08-21T02:34:34;0.35;;;0.35;;
61127;SDS011;47013;42.664;23.242;2023-08-21T02:37:00;0.47;;;0.35;;
61127;SDS011;47013;42.664;23.242;2023-08-21T02:39:25;0.30;;;0.30;;
61127;SDS011;47013;42.664;23.242;2023-08-21T02:41:50;0.35;;;0.35;;
61127;SDS011;47013;42.664;23.242;2023-08-21T02:44:16;0.52;;;0.30;;
61127;SDS011;47013;42.664;23.242;2023-08-21T02:46:41;0.95;;;0.70;;
61127;SDS011;47013;42.664;23.242;2023-08-21T02:49:07;0.35;;;0.35;;
61127;SDS011;47013;42.664;23.242;2023-08-21T02:51:32;0.50;;;0.50;;
61127;SDS011;47013;42.664;23.242;2023-08-21T02:53:57;0.30;;;0.22;;
61127;SDS011;47013;42.664;23.242;2023-08-21T02:56:23;0.38;;;0.38;;
61127;SDS011;47013;42.664;23.242;2023-08-21T02:58:48;0.45;;;0.38;;
61127;SDS011;47013;42.664;23.242;2023-08-21T03:01:13;0.43;;;0.40;;
61127;SDS011;47013;42.664;23.242;2023-08-21T03:03:39;0.68;;;0.32;;
61127;SDS011;47013;42.664;23.242;2023-08-21T03:06:04;4.75;;;0.35;;
61127;SDS011;47013;42.664;23.242;2023-08-21T03:08:29;0.63;;;0.50;;
61127;SDS011;47013;42.664;23.242;2023-08-21T03:10:55;0.55;;;0.35;;
61127;SDS011;47013;42.664;23.242;2023-08-21T03:13:20;0.43;;;0.40;;
61127;SDS011;47013;42.664;23.242;2023-08-21T03:15:46;0.25;;;0.25;;
61127;SDS011;47013;42.664;23.242;2023-08-21T03:18:11;0.32;;;0.32;;
61127;SDS011;47013;42.664;23.242;2023-08-21T03:20:36;1.13;;;0.45;;
61127;SDS011;47013;42.664;23.242;2023-08-21T03:23:02;0.10;;;0.10;;
61127;SDS011;47013;42.664;23.242;2023-08-21T03:25:28;0.00;;;0.00;;
61127;SDS011;47013;42.664;23.242;2023-08-21T03:27:53;0.73;;;0.50;;
61127;SDS011;47013;42.664;23.242;2023-08-21T03:30:19;0.35;;;0.25;;
61127;SDS011;47013;42.664;23.242;2023-08-21T03:32:44;0.57;;;0.57;;
61127;SDS011;47013;42.664;23.242;2023-08-21T03:35:10;0.75;;;0.52;;
61127;SDS011;47013;42.664;23.242;2023-08-21T03:37:36;1.05;;;0.60;;
61127;SDS011;47013;42.664;23.242;2023-08-21T03:40:02;0.32;;;0.25;;
61127;SDS011;47013;42.664;23.242;2023-08-21T03:42:28;0.65;;;0.40;;
61127;SDS011;47013;42.664;23.242;2023-08-21T03:44:53;0.82;;;0.82;;
61127;SDS011;47013;42.664;23.242;2023-08-21T03:47:18;0.30;;;0.30;;
61127;SDS011;47013;42.664;23.242;2023-08-21T03:49:44;0.32;;;0.32;;
61127;SDS011;47013;42.664;23.242;2023-08-21T03:52:09;1.05;;;0.50;;
61127;SDS011;47013;42.664;23.242;2023-08-21T03:54:35;0.30;;;0.30;;
61127;SDS011;47013;42.664;23.242;2023-08-21T03:57:00;0.80;;;0.45;;
61127;SDS011;47013;42.664;23.242;2023-08-21T03:59:25;0.98;;;0.45;;
61127;SDS011;47013;42.664;23.242;2023-08-21T04:01:52;0.40;;;0.35;;
61127;SDS011;47013;42.664;23.242;2023-08-21T04:04:18;0.57;;;0.28;;
61127;SDS011;47013;42.664;23.242;2023-08-21T04:06:43;0.03;;;0.03;;
61127;SDS011;47013;42.664;23.242;2023-08-21T04:09:09;0.43;;;0.43;;
61127;SDS011;47013;42.664;23.242;2023-08-21T04:11:35;0.75;;;0.43;;
61127;SDS011;47013;42.664;23.242;2023-08-21T04:14:01;0.30;;;0.20;;
61127;SDS011;47013;42.664;23.242;2023-08-21T04:16:27;0.40;;;0.40;;
61127;SDS011;47013;42.664;23.242;2023-08-21T04:18:53;0.88;;;0.52;;
61127;SDS011;47013;42.664;23.242;2023-08-21T04:21:19;0.00;;;0.00;;
61127;SDS011;47013;42.664;23.242;2023-08-21T04:23:44;0.47;;;0.32;;
61127;SDS011;47013;42.664;23.242;2023-08-21T04:28:38;1.10;;;0.63;;
61127;SDS011;47013;42.664;23.242;2023-08-21T04:31:06;0.47;;;0.30;;
61127;SDS011;47013;42.664;23.242;2023-08-21T04:33:32;2.20;;;0.90;;
61127;SDS011;47013;42.664;23.242;2023-08-21T04:35:59;0.40;;;0.40;;
61127;SDS011;47013;42.664;23.242;2023-08-21T04:38:24;0.73;;;0.52;;
61127;SDS011;47013;42.664;23.242;2023-08-21T04:40:50;0.47;;;0.47;;
61127;SDS011;47013;42.664;23.242;2023-08-21T04:43:16;1.75;;;0.60;;
61127;SDS011;47013;42.664;23.242;2023-08-21T04:45:48;0.30;;;0.30;;
61127;SDS011;47013;42.664;23.242;2023-08-21T04:48:15;0.20;;;0.20;;
61127;SDS011;47013;42.664;23.242;2023-08-21T04:50:40;0.35;;;0.35;;
61127;SDS011;47013;42.664;23.242;2023-08-21T04:53:06;0.65;;;0.47;;
61127;SDS011;47013;42.664;23.242;2023-08-21T04:55:31;1.30;;;0.60;;
61127;SDS011;47013;42.664;23.242;2023-08-21T04:57:57;0.93;;;0.47;;
61127;SDS011;47013;42.664;23.242;2023-08-21T05:00:22;0.52;;;0.52;;
61127;SDS011;47013;42.664;23.242;2023-08-21T05:02:47;0.47;;;0.47;;
61127;SDS011;47013;42.664;23.242;2023-08-21T05:05:13;0.73;;;0.55;;
61127;SDS011;47013;42.664;23.242;2023-08-21T05:07:38;2.00;;;1.25;;
61127;SDS011;47013;42.664;23.242;2023-08-21T05:10:03;0.40;;;0.40;;
61127;SDS011;47013;42.664;23.242;2023-08-21T05:12:29;0.82;;;0.60;;
61127;SDS011;47013;42.664;23.242;2023-08-21T05:14:55;1.45;;;0.70;;
61127;SDS011;47013;42.664;23.242;2023-08-21T05:17:20;1.05;;;0.70;;
61127;SDS011;47013;42.664;23.242;2023-08-21T05:19:46;0.50;;;0.43;;
61127;SDS011;47013;42.664;23.242;2023-08-21T05:22:11;1.17;;;0.80;;
61127;SDS011;47013;42.664;23.242;2023-08-21T05:24:37;0.63;;;0.55;;
61127;SDS011;47013;42.664;23.242;2023-08-21T05:27:02;1.05;;;0.57;;
61127;SDS011;47013;42.664;23.242;2023-08-21T05:29:29;0.98;;;0.73;;
61127;SDS011;47013;42.664;23.242;2023-08-21T05:31:55;1.80;;;1.05;;
61127;SDS011;47013;42.664;23.242;2023-08-21T05:34:20;2.40;;;1.70;;
61127;SDS011;47013;42.664;23.242;2023-08-21T05:36:46;0.63;;;0.60;;
61127;SDS011;47013;42.664;23.242;2023-08-21T05:39:11;0.68;;;0.68;;
61127;SDS011;47013;42.664;23.242;2023-08-21T05:41:36;0.13;;;0.13;;
61127;SDS011;47013;42.664;23.242;2023-08-21T05:44:02;0.60;;;0.60;;
61127;SDS011;47013;42.664;23.242;2023-08-21T05:46:27;0.77;;;0.52;;
61127;SDS011;47013;42.664;23.242;2023-08-21T05:48:53;2.10;;;0.95;;
61127;SDS011;47013;42.664;23.242;2023-08-21T05:51:18;2.42;;;1.17;;
61127;SDS011;47013;42.664;23.242;2023-08-21T05:53:43;1.65;;;0.65;;
61127;SDS011;47013;42.664;23.242;2023-08-21T05:56:09;1.85;;;1.08;;
61127;SDS011;47013;42.664;23.242;2023-08-21T05:58:34;0.85;;;0.47;;
61127;SDS011;47013;42.664;23.242;2023-08-21T06:01:00;1.80;;;1.00;;
61127;SDS011;47013;42.664;23.242;2023-08-21T06:03:25;0.65;;;0.57;;
61127;SDS011;47013;42.664;23.242;2023-08-21T06:05:50;2.05;;;0.80;;
61127;SDS011;47013;42.664;23.242;2023-08-21T06:08:16;0.55;;;0.50;;
61127;SDS011;47013;42.664;23.242;2023-08-21T06:10:41;1.38;;;0.85;;
61127;SDS011;47013;42.664;23.242;2023-08-21T06:13:06;1.10;;;0.80;;
61127;SDS011;47013;42.664;23.242;2023-08-21T06:15:32;2.15;;;1.00;;
61127;SDS011;47013;42.664;23.242;2023-08-21T06:17:58;0.70;;;0.60;;
61127;SDS011;47013;42.664;23.242;2023-08-21T06:20:24;2.22;;;1.10;;
61127;SDS011;47013;42.664;23.242;2023-08-21T06:22:49;0.38;;;0.38;;
61127;SDS011;47013;42.664;23.242;2023-08-21T06:25:15;1.42;;;1.02;;
61127;SDS011;47013;42.664;23.242;2023-08-21T06:27:40;0.32;;;0.32;;
61127;SDS011;47013;42.664;23.242;2023-08-21T06:30:06;1.08;;;1.00;;
61127;SDS011;47013;42.664;23.242;2023-08-21T06:32:31;0.77;;;0.77;;
61127;SDS011;47013;42.664;23.242;2023-08-21T06:34:57;1.13;;;1.00;;
61127;SDS011;47013;42.664;23.242;2023-08-21T06:37:22;1.65;;;0.90;;
61127;SDS011;47013;42.664;23.242;2023-08-21T06:39:47;0.90;;;0.70;;
61127;SDS011;47013;42.664;23.242;2023-08-21T06:42:13;0.55;;;0.52;;
61127;SDS011;47013;42.664;23.242;2023-08-21T06:44:38;2.40;;;1.10;;
61127;SDS011;47013;42.664;23.242;2023-08-21T06:47:05;1.98;;;0.98;;
61127;SDS011;47013;42.664;23.242;2023-08-21T06:49:30;0.63;;;0.52;;
61127;SDS011;47013;42.664;23.242;2023-08-21T06:51:55;1.83;;;0.75;;
61127;SDS011;47013;42.664;23.242;2023-08-21T06:54:21;2.60;;;1.35;;
61127;SDS011;47013;42.664;23.242;2023-08-21T06:56:46;2.05;;;1.10;;
61127;SDS011;47013;42.664;23.242;2023-08-21T06:59:12;1.10;;;0.75;;
61127;SDS011;47013;42.664;23.242;2023-08-21T07:01:37;1.10;;;0.77;;
61127;SDS011;47013;42.664;23.242;2023-08-21T07:04:02;1.40;;;0.90;;
61127;SDS011;47013;42.664;23.242;2023-08-21T07:06:28;1.70;;;1.00;;
61127;SDS011;47013;42.664;23.242;2023-08-21T07:08:54;1.15;;;0.90;;
61127;SDS011;47013;42.664;23.242;2023-08-21T07:11:19;1.42;;;0.93;;
61127;SDS011;47013;42.664;23.242;2023-08-21T07:13:45;1.35;;;0.70;;
61127;SDS011;47013;42.664;23.242;2023-08-21T07:16:10;1.33;;;0.88;;
61127;SDS011;47013;42.664;23.242;2023-08-21T07:18:35;1.05;;;0.82;;
61127;SDS011;47013;42.664;23.242;2023-08-21T07:21:01;2.25;;;1.20;;
61127;SDS011;47013;42.664;23.242;2023-08-21T07:23:29;1.17;;;0.65;;
61127;SDS011;47013;42.664;23.242;2023-08-21T07:25:54;1.40;;;0.90;;
61127;SDS011;47013;42.664;23.242;2023-08-21T07:28:20;0.75;;;0.65;;
61127;SDS011;47013;42.664;23.242;2023-08-21T07:30:45;1.77;;;0.70;;
61127;SDS011;47013;42.664;23.242;2023-08-21T07:33:11;0.60;;;0.57;;
61127;SDS011;47013;42.664;23.242;2023-08-21T07:35:36;1.77;;;1.10;;
61127;SDS011;47013;42.664;23.242;2023-08-21T07:38:02;3.45;;;1.48;;
61127;SDS011;47013;42.664;23.242;2023-08-21T07:40:27;1.75;;;1.23;;
61127;SDS011;47013;42.664;23.242;2023-08-21T07:42:53;1.98;;;1.15;;
61127;SDS011;47013;42.664;23.242;2023-08-21T07:45:18;2.97;;;1.30;;
61127;SDS011;47013;42.664;23.242;2023-08-21T07:47:44;1.45;;;0.90;;
61127;SDS011;47013;42.664;23.242;2023-08-21T07:50:09;1.25;;;0.95;;
61127;SDS011;47013;42.664;23.242;2023-08-21T07:52:35;1.27;;;0.90;;
61127;SDS011;47013;42.664;23.242;2023-08-21T07:55:01;1.35;;;0.70;;
61127;SDS011;47013;42.664;23.242;2023-08-21T07:57:27;0.77;;;0.50;;
61127;SDS011;47013;42.664;23.242;2023-08-21T07:59:54;1.55;;;0.95;;
61127;SDS011;47013;42.664;23.242;2023-08-21T08:02:19;1.70;;;1.15;;
61127;SDS011;47013;42.664;23.242;2023-08-21T08:04:45;2.28;;;1.50;;
61127;SDS011;47013;42.664;23.242;2023-08-21T08:07:11;1.10;;;0.93;;
61127;SDS011;47013;42.664;23.242;2023-08-21T08:09:36;2.15;;;1.25;;
61127;SDS011;47013;42.664;23.242;2023-08-21T08:12:02;1.88;;;1.20;;
61127;SDS011;47013;42.664;23.242;2023-08-21T08:14:28;2.00;;;1.30;;
61127;SDS011;47013;42.664;23.242;2023-08-21T08:16:53;1.27;;;0.88;;
61127;SDS011;47013;42.664;23.242;2023-08-21T08:19:18;1.88;;;1.15;;
61127;SDS011;47013;42.664;23.242;2023-08-21T08:21:44;1.67;;;1.27;;
61127;SDS011;47013;42.664;23.242;2023-08-21T08:24:09;2.50;;;1.27;;
61127;SDS011;47013;42.664;23.242;2023-08-21T08:26:35;2.03;;;1.25;;
61127;SDS011;47013;42.664;23.242;2023-08-21T08:29:00;1.98;;;1.40;;
61127;SDS011;47013;42.664;23.242;2023-08-21T08:31:26;1.30;;;1.02;;
61127;SDS011;47013;42.664;23.242;2023-08-21T08:33:52;2.00;;;1.17;;
61127;SDS011;47013;42.664;23.242;2023-08-21T08:36:19;1.80;;;1.10;;
61127;SDS011;47013;42.664;23.242;2023-08-21T08:38:44;1.42;;;0.95;;
61127;SDS011;47013;42.664;23.242;2023-08-21T08:41:11;1.27;;;0.98;;
61127;SDS011;47013;42.664;23.242;2023-08-21T08:43:44;2.05;;;1.05;;
61127;SDS011;47013;42.664;23.242;2023-08-21T08:46:10;1.20;;;0.98;;
61127;SDS011;47013;42.664;23.242;2023-08-21T08:48:36;1.33;;;1.05;;
61127;SDS011;47013;42.664;23.242;2023-08-21T08:51:02;2.35;;;1.38;;
61127;SDS011;47013;42.664;23.242;2023-08-21T08:53:31;3.55;;;1.63;;
61127;SDS011;47013;42.664;23.242;2023-08-21T08:55:57;2.05;;;1.05;;
61127;SDS011;47013;42.664;23.242;2023-08-21T08:58:23;3.63;;;1.58;;
61127;SDS011;47013;42.664;23.242;2023-08-21T09:00:49;1.38;;;1.00;;
61127;SDS011;47013;42.664;23.242;2023-08-21T09:03:15;1.02;;;0.88;;
61127;SDS011;47013;42.664;23.242;2023-08-21T09:05:40;2.28;;;1.27;;
61127;SDS011;47013;42.664;23.242;2023-08-21T09:10:31;1.92;;;1.23;;
61127;SDS011;47013;42.664;23.242;2023-08-21T09:12:57;1.58;;;1.20;;
61127;SDS011;47013;42.664;23.242;2023-08-21T09:15:28;2.10;;;1.10;;
61127;SDS011;47013;42.664;23.242;2023-08-21T09:17:57;2.55;;;1.27;;
61127;SDS011;47013;42.664;23.242;2023-08-21T09:20:22;1.48;;;1.10;;
61127;SDS011;47013;42.664;23.242;2023-08-21T09:22:53;1.70;;;1.33;;
61127;SDS011;47013;42.664;23.242;2023-08-21T09:25:22;2.13;;;1.15;;
61127;SDS011;47013;42.664;23.242;2023-08-21T09:27:51;1.55;;;1.25;;
61127;SDS011;47013;42.664;23.242;2023-08-21T09:30:18;1.10;;;0.95;;
61127;SDS011;47013;42.664;23.242;2023-08-21T09:37:47;1.25;;;1.15;;
61127;SDS011;47013;42.664;23.242;2023-08-21T09:40:12;2.00;;;1.38;;
61127;SDS011;47013;42.664;23.242;2023-08-21T09:42:39;1.08;;;0.90;;
61127;SDS011;47013;42.664;23.242;2023-08-21T09:45:05;1.45;;;1.13;;
61127;SDS011;47013;42.664;23.242;2023-08-21T09:47:31;1.63;;;1.17;;
61127;SDS011;47013;42.664;23.242;2023-08-21T09:49:58;1.77;;;1.10;;
61127;SDS011;47013;42.664;23.242;2023-08-21T09:52:24;1.13;;;0.80;;
61127;SDS011;47013;42.664;23.242;2023-08-21T09:54:53;2.47;;;1.10;;
61127;SDS011;47013;42.664;23.242;2023-08-21T09:57:19;1.73;;;1.13;;
61127;SDS011;47013;42.664;23.242;2023-08-21T09:59:47;1.70;;;1.27;;
61127;SDS011;47013;42.664;23.242;2023-08-21T10:02:15;1.60;;;1.10;;
61127;SDS011;47013;42.664;23.242;2023-08-21T10:04:41;1.92;;;1.10;;
61127;SDS011;47013;42.664;23.242;2023-08-21T10:07:10;1.75;;;1.25;;
61127;SDS011;47013;42.664;23.242;2023-08-21T10:09:37;2.70;;;1.52;;
61127;SDS011;47013;42.664;23.242;2023-08-21T10:12:05;1.15;;;0.93;;
61127;SDS011;47013;42.664;23.242;2023-08-21T10:14:33;3.33;;;1.73;;
61127;SDS011;47013;42.664;23.242;2023-08-21T10:16:59;2.05;;;1.15;;
61127;SDS011;47013;42.664;23.242;2023-08-21T10:19:30;1.40;;;1.20;;
61127;SDS011;47013;42.664;23.242;2023-08-21T10:21:56;3.30;;;1.20;;
61127;SDS011;47013;42.664;23.242;2023-08-21T10:24:27;1.92;;;1.38;;
61127;SDS011;47013;42.664;23.242;2023-08-21T10:26:53;1.13;;;1.02;;
61127;SDS011;47013;42.664;23.242;2023-08-21T10:29:19;1.20;;;1.10;;
61127;SDS011;47013;42.664;23.242;2023-08-21T10:31:45;0.88;;;0.88;;
61127;SDS011;47013;42.664;23.242;2023-08-21T10:34:13;1.50;;;1.17;;
61127;SDS011;47013;42.664;23.242;2023-08-21T10:39:17;3.58;;;1.90;;
61127;SDS011;47013;42.664;23.242;2023-08-21T10:42:05;1.92;;;1.25;;
61127;SDS011;47013;42.664;23.242;2023-08-21T10:44:46;2.10;;;1.20;;
61127;SDS011;47013;42.664;23.242;2023-08-21T10:47:18;1.42;;;0.90;;
61127;SDS011;47013;42.664;23.242;2023-08-21T10:49:44;2.13;;;1.40;;
61127;SDS011;47013;42.664;23.242;2023-08-21T10:52:10;3.22;;;1.67;;
61127;SDS011;47013;42.664;23.242;2023-08-21T10:54:43;1.27;;;1.10;;
61127;SDS011;47013;42.664;23.242;2023-08-21T10:57:09;1.30;;;1.05;;
61127;SDS011;47013;42.664;23.242;2023-08-21T10:59:35;1.08;;;0.98;;
61127;SDS011;47013;42.664;23.242;2023-08-21T11:02:00;1.05;;;0.98;;
61127;SDS011;47013;42.664;23.242;2023-08-21T11:04:26;4.15;;;2.03;;
61127;SDS011;47013;42.664;23.242;2023-08-21T11:06:51;1.75;;;1.00;;
61127;SDS011;47013;42.664;23.242;2023-08-21T11:09:17;2.08;;;1.23;;
61127;SDS011;47013;42.664;23.242;2023-08-21T11:11:43;2.00;;;1.35;;
61127;SDS011;47013;42.664;23.242;2023-08-21T11:14:08;1.33;;;1.13;;
61127;SDS011;47013;42.664;23.242;2023-08-21T11:16:34;2.33;;;1.27;;
61127;SDS011;47013;42.664;23.242;2023-08-21T11:19:03;1.83;;;1.15;;
61127;SDS011;47013;42.664;23.242;2023-08-21T11:21:29;2.50;;;1.25;;
61127;SDS011;47013;42.664;23.242;2023-08-21T11:23:55;2.38;;;1.42;;
61127;SDS011;47013;42.664;23.242;2023-08-21T11:26:20;1.85;;;1.27;;
61127;SDS011;47013;42.664;23.242;2023-08-21T11:28:46;1.55;;;1.13;;
61127;SDS011;47013;42.664;23.242;2023-08-21T11:31:12;1.13;;;0.93;;
61127;SDS011;47013;42.664;23.242;2023-08-21T11:33:38;1.17;;;1.08;;
61127;SDS011;47013;42.664;23.242;2023-08-21T11:36:04;2.17;;;1.17;;
61127;SDS011;47013;42.664;23.242;2023-08-21T11:38:29;3.22;;;1.80;;
61127;SDS011;47013;42.664;23.242;2023-08-21T11:40:59;1.85;;;1.35;;
61127;SDS011;47013;42.664;23.242;2023-08-21T11:43:35;1.52;;;1.13;;
61127;SDS011;47013;42.664;23.242;2023-08-21T11:46:06;2.05;;;1.10;;
61127;SDS011;47013;42.664;23.242;2023-08-21T11:48:32;1.42;;;1.10;;
61127;SDS011;47013;42.664;23.242;2023-08-21T11:50:58;1.50;;;1.13;;
61127;SDS011;47013;42.664;23.242;2023-08-21T11:53:57;1.15;;;0.82;;
61127;SDS011;47013;42.664;23.242;2023-08-21T11:56:17;1.42;;;1.10;;
61127;SDS011;47013;42.664;23.242;2023-08-21T11:58:46;1.33;;;0.88;;
61127;SDS011;47013;42.664;23.242;2023-08-21T12:01:18;1.98;;;1.30;;
61127;SDS011;47013;42.664;23.242;2023-08-21T12:03:44;1.42;;;1.10;;
61127;SDS011;47013;42.664;23.242;2023-08-21T12:06:10;1.23;;;1.00;;
61127;SDS011;47013;42.664;23.242;2023-08-21T12:08:37;2.33;;;1.25;;
61127;SDS011;47013;42.664;23.242;2023-08-21T12:11:04;1.98;;;1.30;;
61127;SDS011;47013;42.664;23.242;2023-08-21T12:13:29;1.77;;;1.15;;
61127;SDS011;47013;42.664;23.242;2023-08-21T12:15:55;1.00;;;0.93;;
61127;SDS011;47013;42.664;23.242;2023-08-21T12:18:21;0.88;;;0.85;;
61127;SDS011;47013;42.664;23.242;2023-08-21T12:20:46;1.35;;;0.93;;
61127;SDS011;47013;42.664;23.242;2023-08-21T12:23:11;1.50;;;1.08;;
61127;SDS011;47013;42.664;23.242;2023-08-21T12:25:37;0.73;;;0.68;;
61127;SDS011;47013;42.664;23.242;2023-08-21T12:28:02;2.55;;;1.10;;
61127;SDS011;47013;42.664;23.242;2023-08-21T12:30:28;2.38;;;1.30;;
61127;SDS011;47013;42.664;23.242;2023-08-21T12:32:53;2.05;;;1.08;;
61127;SDS011;47013;42.664;23.242;2023-08-21T12:35:19;3.95;;;1.27;;
61127;SDS011;47013;42.664;23.242;2023-08-21T12:37:44;1.33;;;1.13;;
61127;SDS011;47013;42.664;23.242;2023-08-21T12:40:09;2.50;;;1.40;;
61127;SDS011;47013;42.664;23.242;2023-08-21T12:42:35;2.05;;;1.25;;
61127;SDS011;47013;42.664;23.242;2023-08-21T12:45:01;2.30;;;1.20;;
61127;SDS011;47013;42.664;23.242;2023-08-21T12:47:26;1.92;;;1.17;;
61127;SDS011;47013;42.664;23.242;2023-08-21T12:49:51;1.52;;;1.20;;
61127;SDS011;47013;42.664;23.242;2023-08-21T12:52:17;1.55;;;1.13;;
61127;SDS011;47013;42.664;23.242;2023-08-21T12:54:42;1.75;;;1.33;;
61127;SDS011;47013;42.664;23.242;2023-08-21T12:57:08;1.55;;;1.15;;
61127;SDS011;47013;42.664;23.242;2023-08-21T12:59:34;1.30;;;1.20;;
61127;SDS011;47013;42.664;23.242;2023-08-21T13:02:00;1.05;;;1.00;;
61127;SDS011;47013;42.664;23.242;2023-08-21T13:04:26;1.70;;;1.17;;
61127;SDS011;47013;42.664;23.242;2023-08-21T13:06:51;1.05;;;0.95;;
61127;SDS011;47013;42.664;23.242;2023-08-21T13:09:17;1.17;;;1.02;;
61127;SDS011;47013;42.664;23.242;2023-08-21T13:11:42;1.13;;;1.00;;
61127;SDS011;47013;42.664;23.242;2023-08-21T13:14:08;2.05;;;1.17;;
61127;SDS011;47013;42.664;23.242;2023-08-21T13:16:33;0.77;;;0.75;;
61127;SDS011;47013;42.664;23.242;2023-08-21T13:18:58;0.73;;;0.73;;
61127;SDS011;47013;42.664;23.242;2023-08-21T13:21:24;1.10;;;1.00;;
61127;SDS011;47013;42.664;23.242;2023-08-21T13:23:49;1.98;;;0.77;;
61127;SDS011;47013;42.664;23.242;2023-08-21T13:26:14;1.92;;;1.20;;
61127;SDS011;47013;42.664;23.242;2023-08-21T13:28:40;1.10;;;1.00;;
61127;SDS011;47013;42.664;23.242;2023-08-21T13:31:05;1.95;;;1.35;;
61127;SDS011;47013;42.664;23.242;2023-08-21T13:33:32;3.70;;;1.10;;
61127;SDS011;47013;42.664;23.242;2023-08-21T13:36:09;1.63;;;0.90;;
61127;SDS011;47013;42.664;23.242;2023-08-21T13:38:34;1.13;;;1.02;;
61127;SDS011;47013;42.664;23.242;2023-08-21T13:40:59;3.55;;;0.98;;
61127;SDS011;47013;42.664;23.242;2023-08-21T13:43:25;3.58;;;0.88;;
61127;SDS011;47013;42.664;23.242;2023-08-21T13:45:50;3.15;;;1.63;;
61127;SDS011;47013;42.664;23.242;2023-08-21T13:48:15;1.25;;;1.00;;
61127;SDS011;47013;42.664;23.242;2023-08-21T13:50:41;2.03;;;1.20;;
61127;SDS011;47013;42.664;23.242;2023-08-21T13:53:07;1.50;;;1.17;;
61127;SDS011;47013;42.664;23.242;2023-08-21T13:55:32;1.35;;;1.00;;
61127;SDS011;47013;42.664;23.242;2023-08-21T13:57:58;1.80;;;1.05;;
61127;SDS011;47013;42.664;23.242;2023-08-21T14:00:23;1.52;;;1.00;;
61127;SDS011;47013;42.664;23.242;2023-08-21T14:02:49;2.72;;;1.25;;
61127;SDS011;47013;42.664;23.242;2023-08-21T14:05:15;1.20;;;1.00;;
61127;SDS011;47013;42.664;23.242;2023-08-21T14:07:40;1.58;;;1.20;;
61127;SDS011;47013;42.664;23.242;2023-08-21T14:10:06;1.65;;;1.00;;
61127;SDS011;47013;42.664;23.242;2023-08-21T14:12:32;1.98;;;1.10;;
61127;SDS011;47013;42.664;23.242;2023-08-21T14:14:58;1.90;;;1.30;;
61127;SDS011;47013;42.664;23.242;2023-08-21T14:17:24;1.33;;;0.97;;
61127;SDS011;47013;42.664;23.242;2023-08-21T14:19:49;1.70;;;1.20;;
61127;SDS011;47013;42.664;23.242;2023-08-21T14:22:15;1.80;;;1.30;;
61127;SDS011;47013;42.664;23.242;2023-08-21T14:24:40;2.13;;;1.08;;
61127;SDS011;47013;42.664;23.242;2023-08-21T14:27:06;1.63;;;1.08;;
61127;SDS011;47013;42.664;23.242;2023-08-21T14:29:31;1.15;;;1.02;;
61127;SDS011;47013;42.664;23.242;2023-08-21T14:31:58;1.92;;;1.05;;
61127;SDS011;47013;42.664;23.242;2023-08-21T14:34:24;1.67;;;1.15;;
61127;SDS011;47013;42.664;23.242;2023-08-21T14:36:50;1.83;;;1.30;;
61127;SDS011;47013;42.664;23.242;2023-08-21T14:39:15;1.25;;;0.90;;
61127;SDS011;47013;42.664;23.242;2023-08-21T14:41:41;2.00;;;1.33;;
61127;SDS011;47013;42.664;23.242;2023-08-21T14:44:07;1.15;;;0.90;;